createdAt,value
2019-02-07T00:00:26.723Z,42.10
2019-02-07T00:01:34.019Z,40.48
2019-02-07T00:02:40.059Z,44.53
2019-02-07T00:03:47.038Z,42.90
2019-02-07T00:04:53.060Z,43.80
2019-02-07T00:06:00.129Z,43.33
2019-02-07T00:07:06.590Z,44.58
2019-02-07T00:08:13.159Z,42.50
2019-02-07T00:09:20.197Z,42.95
2019-02-07T00:10:26.775Z,45.15
2019-02-07T00:11:33.799Z,44.63
2019-02-07T00:12:40.323Z,44.42
2019-02-07T00:13:46.230Z,43.73
2019-02-07T00:14:52.015Z,41.88
2019-02-07T00:15:58.407Z,41.83
2019-02-07T00:17:04.200Z,41.90
2019-02-07T00:18:11.237Z,41.35
2019-02-07T00:19:18.378Z,43.40
2019-02-07T00:20:25.618Z,43.55
2019-02-07T00:21:31.784Z,43.15
2019-02-07T00:22:39.317Z,43.98
2019-02-07T00:23:45.206Z,42.23
2019-02-07T00:24:51.567Z,41.98
2019-02-07T00:25:58.086Z,44.20
2019-02-07T00:27:04.283Z,45.50
2019-02-07T00:28:10.714Z,44.40
2019-02-07T00:29:17.624Z,43.30
2019-02-07T00:30:24.423Z,42.10
2019-02-07T00:31:31.274Z,43.50
2019-02-07T00:32:39.015Z,43.95
2019-02-07T00:33:44.982Z,43.78
2019-02-07T00:34:52.174Z,44.15
2019-02-07T00:35:58.655Z,42.17
2019-02-07T00:37:04.709Z,42.85
2019-02-07T00:38:14.985Z,43.13
2019-02-07T00:39:21.614Z,42.38
2019-02-07T00:40:28.187Z,44.25
2019-02-07T00:41:34.396Z,42.05
2019-02-07T00:42:42.172Z,42.78
2019-02-07T00:43:48.465Z,44.20
2019-02-07T00:44:55.267Z,43.20
2019-02-07T00:46:03.215Z,45.08
2019-02-07T00:47:09.754Z,42.83
2019-02-07T00:48:17.718Z,43.52
2019-02-07T00:49:24.366Z,43.73
2019-02-07T00:50:31.335Z,41.58
2019-02-07T00:51:38.304Z,42.15
2019-02-07T00:52:44.907Z,43.63
2019-02-07T00:53:51.855Z,41.73
2019-02-07T00:54:57.688Z,41.88
2019-02-07T00:56:03.939Z,41.73
2019-02-07T00:57:10.498Z,43.60
2019-02-07T00:58:16.358Z,43.28
2019-02-07T00:59:23.029Z,43.98
2019-02-07T01:00:31.830Z,42.85
2019-02-07T01:01:37.697Z,44.18
2019-02-07T01:02:43.919Z,45.50
2019-02-07T01:03:50.087Z,43.58
2019-02-07T01:04:56.025Z,43.05
2019-02-07T01:06:02.917Z,42.58
2019-02-07T01:07:10.178Z,41.60
2019-02-07T01:08:17.927Z,45.08
2019-02-07T01:09:24.559Z,43.10
2019-02-07T01:10:32.715Z,44.05
2019-02-07T01:11:38.258Z,43.45
2019-02-07T01:12:45.178Z,43.15
2019-02-07T01:13:52.154Z,42.85
2019-02-07T01:15:02.159Z,43.45
2019-02-07T01:16:06.875Z,44.53
2019-02-07T01:17:13.875Z,42.83
2019-02-07T01:18:20.070Z,43.25
2019-02-07T01:19:27.933Z,44.40
2019-02-07T01:20:35.115Z,43.33
2019-02-07T01:21:40.895Z,43.17
2019-02-07T01:22:46.783Z,44.80
2019-02-07T01:23:55.341Z,44.30
2019-02-07T01:25:01.691Z,42.78
2019-02-07T01:26:08.449Z,41.40
2019-02-07T01:27:15.538Z,43.10
2019-02-07T01:28:23.066Z,44.60
2019-02-07T01:29:29.389Z,42.23
2019-02-07T01:30:37.168Z,42.25
2019-02-07T01:31:43.811Z,42.40
2019-02-07T01:32:50.611Z,41.60
2019-02-07T01:33:56.961Z,42.40
2019-02-07T01:35:02.682Z,41.18
2019-02-07T01:36:10.029Z,43.25
2019-02-07T01:37:15.806Z,42.13
2019-02-07T01:38:22.158Z,41.53
2019-02-07T01:39:29.159Z,42.45
2019-02-07T01:40:35.070Z,42.70
2019-02-07T01:41:41.929Z,43.33
2019-02-07T01:42:48.158Z,43.78
2019-02-07T01:43:54.531Z,41.40
2019-02-07T01:45:01.173Z,43.80
2019-02-07T01:46:08.868Z,45.05
2019-02-07T01:47:14.644Z,44.27
2019-02-07T01:48:21.983Z,43.63
2019-02-07T01:49:27.913Z,44.23
2019-02-07T01:50:34.120Z,44.63
2019-02-07T01:51:40.073Z,46.10
2019-02-07T01:52:46.930Z,46.53
2019-02-07T01:53:52.850Z,47.05
2019-02-07T01:55:00.630Z,45.17
2019-02-07T01:56:08.542Z,46.53
2019-02-07T01:57:14.374Z,45.63
2019-02-07T01:58:21.564Z,47.10
2019-02-07T01:59:29.435Z,45.65
2019-02-07T02:00:35.785Z,45.48
2019-02-07T02:01:42.103Z,42.38
2019-02-07T02:02:48.389Z,41.77
2019-02-07T02:03:54.662Z,42.13
2019-02-07T02:05:01.383Z,43.68
2019-02-07T02:06:07.571Z,43.20
2019-02-07T02:07:14.052Z,43.25
2019-02-07T02:08:20.502Z,42.30
2019-02-07T02:09:26.538Z,43.45
2019-02-07T02:10:32.983Z,43.70
2019-02-07T02:11:40.095Z,42.75
2019-02-07T02:12:46.335Z,40.78
2019-02-07T02:13:53.380Z,42.93
2019-02-07T02:14:59.809Z,41.65
2019-02-07T02:16:06.079Z,43.78
2019-02-07T02:17:11.973Z,43.23
2019-02-07T02:18:19.576Z,44.15
2019-02-07T02:19:25.999Z,45.75
2019-02-07T02:20:34.089Z,44.05
2019-02-07T02:21:41.280Z,43.40
2019-02-07T02:22:48.232Z,43.15
2019-02-07T02:23:54.266Z,41.75
2019-02-07T02:25:00.402Z,44.13
2019-02-07T02:26:06.439Z,44.42
2019-02-07T02:27:13.398Z,44.45
2019-02-07T02:28:20.982Z,44.05
2019-02-07T02:29:27.681Z,42.05
2019-02-07T02:30:36.933Z,42.33
2019-02-07T02:31:42.964Z,40.25
2019-02-07T02:32:49.790Z,41.30
2019-02-07T02:33:56.848Z,40.90
2019-02-07T02:35:02.551Z,43.33
2019-02-07T02:36:08.941Z,40.95
2019-02-07T02:37:17.170Z,43.30
2019-02-07T02:38:22.965Z,42.15
2019-02-07T02:39:29.571Z,42.62
2019-02-07T02:40:36.757Z,43.45
2019-02-07T02:41:42.921Z,44.83
2019-02-07T02:42:49.821Z,42.55
2019-02-07T02:43:57.330Z,43.78
2019-02-07T02:45:03.000Z,45.65
2019-02-07T02:46:09.931Z,43.23
2019-02-07T02:47:16.318Z,45.88
2019-02-07T02:48:23.529Z,44.73
2019-02-07T02:49:30.091Z,45.35
2019-02-07T02:50:36.191Z,44.13
2019-02-07T02:51:42.072Z,43.65
2019-02-07T02:52:49.321Z,42.60
2019-02-07T02:53:57.330Z,44.00
2019-02-07T02:55:05.292Z,43.98
2019-02-07T02:56:11.941Z,45.12
2019-02-07T02:57:18.167Z,44.55
2019-02-07T02:58:24.590Z,43.33
2019-02-07T02:59:31.251Z,44.15
2019-02-07T03:00:46.021Z,43.08
2019-02-07T03:02:08.956Z,45.33
2019-02-07T03:03:23.677Z,45.00
2019-02-07T03:04:31.215Z,44.08
2019-02-07T03:05:42.884Z,43.65
2019-02-07T03:06:54.189Z,43.13
2019-02-07T03:08:10.638Z,44.53
2019-02-07T03:09:25.082Z,44.33
2019-02-07T03:10:41.893Z,44.33
2019-02-07T03:11:56.637Z,44.45
2019-02-07T03:13:07.720Z,46.30
2019-02-07T03:14:17.978Z,44.50
2019-02-07T03:15:49.330Z,44.73
2019-02-07T03:16:52.778Z,44.58
2019-02-07T03:18:03.444Z,45.60
2019-02-07T03:19:09.411Z,43.73
2019-02-07T03:20:20.705Z,45.33
2019-02-07T03:21:35.956Z,43.33
2019-02-07T03:22:44.133Z,42.78
2019-02-07T03:23:52.041Z,41.70
2019-02-07T03:24:59.882Z,42.25
2019-02-07T03:26:23.240Z,39.83
2019-02-07T03:27:29.178Z,41.95
2019-02-07T03:28:42.876Z,43.17
2019-02-07T03:29:50.378Z,43.20
2019-02-07T03:30:57.551Z,49.10
2019-02-07T03:32:21.856Z,46.25
2019-02-07T03:33:45.753Z,45.30
2019-02-07T03:34:53.650Z,46.50
2019-02-07T03:36:11.042Z,47.60
2019-02-07T03:37:21.357Z,48.80
2019-02-07T03:38:47.113Z,47.43
2019-02-07T03:40:01.208Z,47.27
2019-02-07T03:41:28.055Z,48.63
2019-02-07T03:42:45.486Z,45.15
2019-02-07T03:44:01.860Z,46.23
2019-02-07T03:45:25.314Z,46.63
2019-02-07T03:46:44.999Z,44.10
2019-02-07T03:48:10.689Z,44.98
2019-02-07T03:49:17.964Z,43.98
2019-02-07T03:50:25.249Z,43.23
2019-02-07T03:51:34.570Z,43.60
2019-02-07T03:52:44.621Z,42.67
2019-02-07T03:53:58.247Z,44.83
2019-02-07T03:55:20.973Z,43.02
2019-02-07T03:56:43.637Z,44.40
2019-02-07T03:58:07.862Z,44.42
2019-02-07T03:59:19.522Z,45.45
2019-02-07T04:00:30.493Z,44.60
2019-02-07T04:01:45.694Z,46.20
2019-02-07T04:02:53.080Z,41.70
2019-02-07T04:04:06.589Z,44.15
2019-02-07T04:05:21.459Z,44.53
2019-02-07T04:06:29.146Z,45.03
2019-02-07T04:07:46.339Z,44.98
2019-02-07T04:08:53.632Z,46.00
2019-02-07T04:10:17.170Z,46.02
2019-02-07T04:11:33.478Z,45.73
2019-02-07T04:12:54.137Z,44.55
2019-02-07T04:14:02.039Z,44.15
2019-02-07T04:15:13.944Z,44.38
2019-02-07T04:16:21.334Z,44.42
2019-02-07T04:17:45.063Z,43.23
2019-02-07T04:18:58.714Z,44.10
2019-02-07T04:20:14.580Z,44.58
2019-02-07T04:21:32.321Z,45.08
2019-02-07T04:22:43.195Z,44.38
2019-02-07T04:23:49.757Z,45.20
2019-02-07T04:25:10.619Z,44.23
2019-02-07T04:26:31.629Z,43.92
2019-02-07T04:27:45.441Z,44.85
2019-02-07T04:29:10.550Z,43.20
2019-02-07T04:30:16.898Z,44.25
2019-02-07T04:31:24.106Z,42.90
2019-02-07T04:32:34.549Z,41.77
2019-02-07T04:33:58.023Z,41.63
2019-02-07T04:35:06.299Z,42.13
2019-02-07T04:36:17.729Z,43.55
2019-02-07T04:37:26.233Z,43.73
2019-02-07T04:38:31.594Z,44.75
2019-02-07T04:39:39.537Z,45.05
2019-02-07T04:40:47.717Z,45.28
2019-02-07T04:42:11.064Z,43.60
2019-02-07T04:43:17.751Z,44.88
2019-02-07T04:44:25.426Z,44.90
2019-02-07T04:45:36.336Z,45.28
2019-02-07T04:46:54.272Z,44.33
2019-02-07T04:48:04.640Z,47.73
2019-02-07T04:49:18.583Z,47.53
2019-02-07T04:50:33.423Z,46.90
2019-02-07T04:51:45.521Z,47.80
2019-02-07T04:53:12.440Z,47.38
2019-02-07T04:54:32.532Z,45.23
2019-02-07T04:55:58.151Z,46.58
2019-02-07T04:57:18.710Z,45.58
2019-02-07T04:58:43.596Z,47.67
2019-02-07T05:00:03.060Z,46.63
2019-02-07T05:01:26.511Z,44.20
2019-02-07T05:02:50.802Z,45.03
2019-02-07T05:04:14.552Z,52.65
2019-02-07T05:05:38.119Z,51.65
2019-02-07T05:06:45.383Z,49.88
2019-02-07T05:07:52.846Z,50.63
2019-02-07T05:09:16.733Z,50.10
2019-02-07T05:10:31.596Z,51.37
2019-02-07T05:11:45.878Z,48.58
2019-02-07T05:13:03.044Z,54.75
2019-02-07T05:14:27.239Z,50.70
2019-02-07T05:15:38.163Z,52.33
2019-02-07T05:16:48.227Z,52.78
2019-02-07T05:17:56.278Z,68.83
2019-02-07T05:19:19.983Z,55.75
2019-02-07T05:20:31.063Z,51.42
2019-02-07T05:21:38.594Z,50.20
2019-02-07T05:22:47.119Z,54.48
2019-02-07T05:24:07.417Z,55.43
2019-02-07T05:25:31.786Z,48.17
2019-02-07T05:26:43.580Z,46.37
2019-02-07T05:28:08.668Z,47.15
2019-02-07T05:29:17.089Z,46.05
2019-02-07T05:30:27.387Z,49.63
2019-02-07T05:31:34.922Z,48.92
2019-02-07T05:32:44.608Z,48.95
2019-02-07T05:33:58.673Z,48.70
2019-02-07T05:35:25.700Z,45.85
2019-02-07T05:36:42.509Z,46.48
2019-02-07T05:38:07.501Z,46.20
2019-02-07T05:39:18.330Z,46.65
2019-02-07T05:40:26.608Z,49.00
2019-02-07T05:41:51.147Z,48.90
2019-02-07T05:43:13.790Z,49.77
2019-02-07T05:44:24.753Z,54.77
2019-02-07T05:45:33.241Z,55.83
2019-02-07T05:46:57.131Z,54.25
2019-02-07T05:48:22.450Z,56.37
2019-02-07T05:49:30.639Z,57.90
2019-02-07T05:50:38.182Z,57.30
2019-02-07T05:51:55.710Z,57.78
2019-02-07T05:53:01.370Z,62.40
2019-02-07T05:54:12.242Z,60.33
2019-02-07T05:55:23.116Z,61.70
2019-02-07T05:56:33.842Z,62.67
2019-02-07T05:57:51.250Z,62.88
2019-02-07T05:59:07.444Z,61.13
2019-02-07T06:00:34.782Z,62.17
2019-02-07T06:01:54.947Z,59.35
2019-02-07T06:03:03.411Z,59.00
2019-02-07T06:04:27.640Z,60.88
2019-02-07T06:05:35.233Z,56.10
2019-02-07T06:06:47.386Z,57.65
2019-02-07T06:08:10.559Z,56.55
2019-02-07T06:09:18.279Z,56.55
2019-02-07T06:10:42.213Z,57.05
2019-02-07T06:12:09.165Z,55.08
2019-02-07T06:13:34.055Z,56.15
2019-02-07T06:14:42.833Z,55.00
2019-02-07T06:15:57.121Z,56.68
2019-02-07T06:17:17.955Z,55.63
2019-02-07T06:18:45.969Z,53.05
2019-02-07T06:20:09.712Z,51.23
2019-02-07T06:21:26.515Z,51.30
2019-02-07T06:22:43.987Z,52.00
2019-02-07T06:23:52.350Z,51.73
2019-02-07T06:25:08.541Z,52.45
2019-02-07T06:26:19.770Z,52.03
2019-02-07T06:27:27.588Z,51.68
2019-02-07T06:28:35.372Z,52.55
2019-02-07T06:29:46.140Z,51.08
2019-02-07T06:30:54.155Z,51.50
2019-02-07T06:32:01.806Z,50.88
2019-02-07T06:33:25.688Z,52.38
2019-02-07T06:34:37.257Z,50.55
2019-02-07T06:35:48.116Z,49.42
2019-02-07T06:36:56.390Z,50.05
2019-02-07T06:38:04.010Z,51.80
2019-02-07T06:39:31.018Z,49.42
2019-02-07T06:40:51.935Z,49.50
2019-02-07T06:42:09.580Z,47.13
2019-02-07T06:43:23.593Z,47.88
2019-02-07T06:44:38.354Z,49.53
2019-02-07T06:45:49.094Z,49.73
2019-02-07T06:46:57.917Z,50.25
2019-02-07T06:48:08.275Z,51.53
2019-02-07T06:49:22.505Z,50.58
2019-02-07T06:50:35.827Z,52.45
2019-02-07T06:51:50.786Z,51.92
2019-02-07T06:52:58.991Z,51.42
2019-02-07T06:54:26.724Z,51.77
2019-02-07T06:55:39.877Z,49.88
2019-02-07T06:57:17.029Z,48.45
2019-02-07T06:58:26.657Z,48.45
2019-02-07T06:59:36.878Z,46.92
2019-02-07T07:01:01.757Z,48.30
2019-02-07T07:02:23.953Z,47.98
2019-02-07T07:03:39.653Z,49.48
2019-02-07T07:04:52.287Z,49.35
2019-02-07T07:06:11.756Z,49.75
2019-02-07T07:07:36.474Z,48.42
2019-02-07T07:08:56.346Z,47.30
2019-02-07T07:10:28.934Z,48.65
2019-02-07T07:11:41.006Z,47.65
2019-02-07T07:12:51.654Z,49.98
2019-02-07T07:13:58.938Z,51.23
2019-02-07T07:15:31.093Z,50.50
2019-02-07T07:16:43.195Z,49.65
2019-02-07T07:17:52.915Z,50.20
2019-02-07T07:19:03.901Z,50.12
2019-02-07T07:20:18.214Z,50.83
2019-02-07T07:21:34.744Z,52.15
2019-02-07T07:22:45.993Z,51.13
2019-02-07T07:23:58.415Z,50.78
2019-02-07T07:25:28.302Z,51.98
2019-02-07T07:26:34.954Z,49.33
2019-02-07T07:28:00.855Z,51.60
2019-02-07T07:29:09.474Z,53.13
2019-02-07T07:30:34.036Z,52.55
2019-02-07T07:32:01.494Z,52.88
2019-02-07T07:33:25.548Z,52.50
2019-02-07T07:34:35.424Z,54.30
2019-02-07T07:35:44.446Z,51.33
2019-02-07T07:36:52.315Z,54.90
2019-02-07T07:38:00.309Z,55.70
2019-02-07T07:39:25.796Z,63.52
2019-02-07T07:40:51.530Z,61.65
2019-02-07T07:42:12.435Z,58.28
2019-02-07T07:43:20.334Z,60.45
2019-02-07T07:44:43.874Z,60.23
2019-02-07T07:46:15.094Z,59.58
2019-02-07T07:48:01.230Z,59.00
2019-02-07T07:49:19.838Z,61.90
2019-02-07T07:50:37.275Z,57.73
2019-02-07T07:51:43.714Z,54.80
2019-02-07T07:52:57.556Z,56.28
2019-02-07T07:54:12.474Z,58.85
2019-02-07T07:55:25.651Z,55.30
2019-02-07T07:56:52.237Z,53.98
2019-02-07T07:58:03.394Z,60.43
2019-02-07T07:59:15.401Z,56.85
2019-02-07T08:00:34.056Z,55.85
2019-02-07T08:01:39.984Z,54.55
2019-02-07T08:02:54.834Z,54.93
2019-02-07T08:04:07.658Z,53.33
2019-02-07T08:05:22.591Z,54.53
2019-02-07T08:06:36.534Z,53.50
2019-02-07T08:08:00.931Z,53.78
2019-02-07T08:09:15.774Z,52.62
2019-02-07T08:10:27.553Z,52.53
2019-02-07T08:11:37.754Z,54.20
2019-02-07T08:12:52.969Z,55.43
2019-02-07T08:14:08.016Z,53.90
2019-02-07T08:15:29.134Z,53.25
2019-02-07T08:16:38.343Z,52.80
2019-02-07T08:17:52.689Z,55.85
2019-02-07T08:19:06.742Z,54.30
2019-02-07T08:20:30.593Z,52.08
2019-02-07T08:21:56.903Z,51.98
2019-02-07T08:23:04.147Z,52.93
2019-02-07T08:24:27.354Z,53.48
2019-02-07T08:25:42.534Z,50.88
2019-02-07T08:26:50.475Z,51.40
2019-02-07T08:27:59.717Z,52.40
2019-02-07T08:29:21.531Z,53.68
2019-02-07T08:30:36.420Z,49.18
2019-02-07T08:31:46.955Z,50.50
2019-02-07T08:32:59.996Z,51.05
2019-02-07T08:34:26.454Z,51.85
2019-02-07T08:35:33.925Z,51.33
2019-02-07T08:36:50.019Z,52.10
2019-02-07T08:37:58.278Z,52.90
2019-02-07T08:39:11.135Z,52.27
2019-02-07T08:40:28.860Z,53.15
2019-02-07T08:41:52.855Z,52.53
2019-02-07T08:42:58.475Z,50.25
2019-02-07T08:44:03.962Z,52.10
2019-02-07T08:45:13.373Z,50.55
2019-02-07T08:46:29.544Z,51.02
2019-02-07T08:47:58.571Z,50.03
2019-02-07T08:49:07.449Z,49.45
2019-02-07T08:50:25.674Z,52.17
2019-02-07T08:51:36.141Z,51.77
2019-02-07T08:52:54.016Z,51.33
2019-02-07T08:54:00.802Z,50.83
2019-02-07T08:55:08.502Z,49.60
2019-02-07T08:56:32.556Z,51.45
2019-02-07T08:57:40.699Z,51.35
2019-02-07T08:58:46.514Z,53.02
2019-02-07T09:00:10.174Z,51.68
2019-02-07T09:01:38.055Z,51.85
2019-02-07T09:03:03.333Z,50.08
2019-02-07T09:04:31.847Z,50.33
2019-02-07T09:05:53.450Z,50.10
2019-02-07T09:07:17.553Z,48.30
2019-02-07T09:08:28.738Z,49.38
2019-02-07T09:09:41.434Z,49.98
2019-02-07T09:11:03.245Z,50.78
2019-02-07T09:12:16.204Z,49.65
2019-02-07T09:13:39.754Z,50.90
2019-02-07T09:14:53.168Z,51.25
2019-02-07T09:16:15.473Z,54.10
2019-02-07T09:17:20.916Z,52.83
2019-02-07T09:18:38.330Z,51.80
2019-02-07T09:19:51.896Z,53.17
2019-02-07T09:21:14.284Z,52.67
2019-02-07T09:22:23.810Z,50.98
2019-02-07T09:23:35.926Z,49.35
2019-02-07T09:24:59.694Z,50.70
2019-02-07T09:26:16.247Z,52.20
2019-02-07T09:27:24.741Z,52.50
2019-02-07T09:28:40.734Z,51.77
2019-02-07T09:29:51.415Z,50.52
2019-02-07T09:31:04.767Z,51.23
2019-02-07T09:32:24.493Z,51.40
2019-02-07T09:33:44.895Z,51.20
2019-02-07T09:34:58.015Z,52.48
2019-02-07T09:36:24.155Z,53.85
2019-02-07T09:37:30.738Z,53.13
2019-02-07T09:38:41.034Z,54.58
2019-02-07T09:40:04.599Z,53.08
2019-02-07T09:41:21.946Z,53.08
2019-02-07T09:42:42.712Z,52.38
2019-02-07T09:43:53.874Z,53.58
2019-02-07T09:45:05.162Z,53.80
2019-02-07T09:46:25.914Z,52.80
2019-02-07T09:47:35.728Z,52.23
2019-02-07T09:48:48.694Z,53.15
2019-02-07T09:50:08.234Z,55.20
2019-02-07T09:51:23.416Z,53.28
2019-02-07T09:52:36.835Z,53.42
2019-02-07T09:54:02.436Z,51.23
2019-02-07T09:55:13.307Z,53.20
2019-02-07T09:56:22.114Z,53.75
2019-02-07T09:57:30.918Z,53.95
2019-02-07T09:58:43.489Z,52.70
2019-02-07T10:00:06.695Z,50.30
2019-02-07T10:01:20.187Z,50.10
2019-02-07T10:02:38.107Z,50.28
2019-02-07T10:03:52.535Z,50.95
2019-02-07T10:05:09.364Z,51.65
2019-02-07T10:06:17.202Z,50.15
2019-02-07T10:07:42.852Z,49.70
2019-02-07T10:08:53.414Z,49.73
2019-02-07T10:10:13.914Z,51.65
2019-02-07T10:11:36.254Z,50.98
2019-02-07T10:12:57.188Z,51.48
2019-02-07T10:14:13.814Z,52.80
2019-02-07T10:15:39.238Z,52.53
2019-02-07T10:17:01.534Z,51.33
2019-02-07T10:18:32.787Z,53.83
2019-02-07T10:19:36.268Z,57.80
2019-02-07T10:20:47.612Z,58.38
2019-02-07T10:22:10.305Z,56.53
2019-02-07T10:23:23.610Z,55.90
2019-02-07T10:24:47.694Z,57.95
2019-02-07T10:26:11.657Z,57.23
2019-02-07T10:27:22.194Z,55.25
2019-02-07T10:28:45.755Z,57.95
2019-02-07T10:29:54.040Z,56.05
2019-02-07T10:31:17.703Z,57.90
2019-02-07T10:32:27.749Z,57.35
2019-02-07T10:33:33.307Z,57.15
2019-02-07T10:34:44.445Z,56.95
2019-02-07T10:36:01.074Z,55.58
2019-02-07T10:37:09.894Z,56.25
2019-02-07T10:38:17.888Z,56.75
2019-02-07T10:39:35.902Z,57.00
2019-02-07T10:40:52.673Z,56.45
2019-02-07T10:42:16.974Z,55.98
2019-02-07T10:43:40.094Z,55.73
2019-02-07T10:44:49.014Z,57.43
2019-02-07T10:46:08.293Z,57.15
2019-02-07T10:47:33.494Z,59.10
2019-02-07T10:48:44.652Z,56.83
2019-02-07T10:49:59.445Z,59.13
2019-02-07T10:51:06.562Z,59.27
2019-02-07T10:52:20.105Z,59.48
2019-02-07T10:53:33.730Z,59.93
2019-02-07T10:54:53.675Z,60.05
2019-02-07T10:56:17.862Z,60.00
2019-02-07T10:57:31.633Z,60.40
2019-02-07T10:58:37.054Z,61.53
2019-02-07T10:59:46.101Z,59.98
2019-02-07T11:01:00.515Z,61.53
2019-02-07T11:02:15.375Z,60.60
2019-02-07T11:03:31.333Z,61.37
2019-02-07T11:04:59.884Z,62.23
2019-02-07T11:06:27.259Z,59.10
2019-02-07T11:07:36.234Z,60.43
2019-02-07T11:08:52.290Z,63.60
2019-02-07T11:10:09.273Z,61.37
2019-02-07T11:11:18.814Z,62.33
2019-02-07T11:12:36.415Z,64.90
2019-02-07T11:13:47.791Z,63.58
2019-02-07T11:15:01.415Z,62.60
2019-02-07T11:16:18.715Z,64.45
2019-02-07T11:17:31.427Z,63.68
2019-02-07T11:18:55.723Z,62.80
2019-02-07T11:20:08.237Z,62.75
2019-02-07T11:21:16.794Z,62.65
2019-02-07T11:22:24.242Z,62.80
2019-02-07T11:23:34.327Z,62.58
2019-02-07T11:24:44.154Z,63.45
2019-02-07T11:26:03.634Z,59.80
2019-02-07T11:27:11.673Z,62.40
2019-02-07T11:28:19.465Z,62.78
2019-02-07T11:29:28.634Z,65.92
2019-02-07T11:30:39.902Z,66.05
2019-02-07T11:32:03.575Z,64.40
2019-02-07T11:33:17.363Z,65.47
2019-02-07T11:34:30.842Z,66.02
2019-02-07T11:35:57.324Z,68.22
2019-02-07T11:37:11.467Z,68.83
2019-02-07T11:38:20.173Z,69.95
2019-02-07T11:39:29.781Z,71.33
2019-02-07T11:40:41.290Z,70.70
2019-02-07T11:41:55.434Z,71.40
2019-02-07T11:43:06.717Z,70.10
2019-02-07T11:44:15.206Z,72.65
2019-02-07T11:45:22.694Z,73.07
2019-02-07T11:46:48.778Z,73.83
2019-02-07T11:47:59.215Z,75.72
2019-02-07T11:49:19.014Z,73.92
2019-02-07T11:50:32.854Z,76.65
2019-02-07T11:51:43.814Z,73.95
2019-02-07T11:53:09.547Z,75.57
2019-02-07T11:54:24.536Z,75.75
2019-02-07T11:55:32.334Z,73.40
2019-02-07T11:56:55.963Z,76.00
2019-02-07T11:58:10.315Z,74.45
2019-02-07T11:59:35.914Z,76.02
2019-02-07T12:01:02.934Z,76.22
2019-02-07T12:02:19.927Z,76.33
2019-02-07T12:03:33.873Z,78.50
2019-02-07T12:04:42.559Z,78.33
2019-02-07T12:05:51.114Z,77.25
2019-02-07T12:07:01.227Z,77.32
2019-02-07T12:08:26.237Z,78.52
2019-02-07T12:09:34.754Z,78.33
2019-02-07T12:10:49.174Z,77.03
2019-02-07T12:12:05.862Z,79.40
2019-02-07T12:13:17.274Z,76.37
2019-02-07T12:14:36.415Z,78.25
2019-02-07T12:15:46.673Z,75.35
2019-02-07T12:16:57.334Z,76.33
2019-02-07T12:18:21.277Z,74.35
2019-02-07T12:19:34.574Z,75.52
2019-02-07T12:20:55.293Z,75.67
2019-02-07T12:22:18.956Z,75.15
2019-02-07T12:23:30.442Z,75.50
2019-02-07T12:24:47.515Z,77.00
2019-02-07T12:25:56.034Z,76.77
2019-02-07T12:27:14.277Z,74.05
2019-02-07T12:28:31.995Z,75.12
2019-02-07T12:29:46.767Z,73.85
2019-02-07T12:31:11.194Z,75.40
2019-02-07T12:32:19.666Z,73.50
2019-02-07T12:33:43.913Z,75.47
2019-02-07T12:34:51.874Z,76.77
2019-02-07T12:36:00.713Z,75.10
2019-02-07T12:37:17.746Z,75.97
2019-02-07T12:38:40.494Z,76.60
2019-02-07T12:40:04.210Z,76.22
2019-02-07T12:41:15.887Z,77.50
2019-02-07T12:42:28.894Z,78.52
2019-02-07T12:43:39.084Z,81.82
2019-02-07T12:45:01.268Z,80.45
2019-02-07T12:46:09.832Z,80.47
2019-02-07T12:47:19.996Z,78.02
2019-02-07T12:48:36.417Z,80.53
2019-02-07T12:50:00.031Z,80.05
2019-02-07T12:51:20.675Z,79.15
2019-02-07T12:52:44.235Z,78.87
2019-02-07T12:54:02.540Z,78.57
2019-02-07T12:55:11.995Z,78.10
2019-02-07T12:56:22.855Z,79.95
2019-02-07T12:57:48.775Z,78.47
2019-02-07T12:58:57.376Z,79.35
2019-02-07T13:00:24.053Z,81.00
2019-02-07T13:01:48.715Z,79.42
2019-02-07T13:03:01.676Z,79.05
2019-02-07T13:04:08.649Z,81.65
2019-02-07T13:05:35.615Z,81.65
2019-02-07T13:06:57.110Z,80.17
2019-02-07T13:08:03.876Z,81.75
2019-02-07T13:09:10.736Z,82.17
2019-02-07T13:10:27.417Z,83.65
2019-02-07T13:11:37.723Z,83.15
2019-02-07T13:13:00.851Z,84.72
2019-02-07T13:14:08.306Z,85.25
2019-02-07T13:15:16.665Z,88.75
2019-02-07T13:16:40.195Z,84.03
2019-02-07T13:17:52.077Z,84.72
2019-02-07T13:19:12.261Z,85.50
2019-02-07T13:20:33.172Z,85.77
2019-02-07T13:21:40.435Z,84.50
2019-02-07T13:22:45.970Z,86.92
2019-02-07T13:23:59.601Z,88.10
2019-02-07T13:25:13.122Z,86.02
2019-02-07T13:26:19.451Z,88.20
2019-02-07T13:27:45.179Z,86.37
2019-02-07T13:28:58.819Z,87.08
2019-02-07T13:30:30.936Z,87.57
2019-02-07T13:31:40.794Z,85.12
2019-02-07T13:33:04.021Z,85.25
2019-02-07T13:34:18.109Z,85.47
2019-02-07T13:35:42.075Z,87.02
2019-02-07T13:36:48.108Z,85.30
2019-02-07T13:38:11.992Z,86.63
2019-02-07T13:39:33.395Z,86.92
2019-02-07T13:40:54.029Z,83.50
2019-02-07T13:42:08.515Z,86.72
2019-02-07T13:43:22.652Z,86.53
2019-02-07T13:44:29.928Z,84.55
2019-02-07T13:45:44.236Z,83.33
2019-02-07T13:47:03.716Z,86.40
2019-02-07T13:48:14.995Z,85.60
2019-02-07T13:49:20.376Z,85.22
2019-02-07T13:50:27.696Z,83.90
2019-02-07T13:51:33.457Z,86.40
2019-02-07T13:52:47.068Z,84.42
2019-02-07T13:53:59.546Z,84.83
2019-02-07T13:55:24.775Z,83.12
2019-02-07T13:56:33.117Z,82.72
2019-02-07T13:57:40.777Z,82.27
2019-02-07T13:59:04.954Z,82.30
2019-02-07T14:00:20.257Z,84.28
2019-02-07T14:01:31.469Z,81.95
2019-02-07T14:02:55.436Z,82.40
2019-02-07T14:04:05.998Z,81.40
2019-02-07T14:05:13.870Z,80.53
2019-02-07T14:06:27.588Z,85.15
2019-02-07T14:07:51.652Z,82.78
2019-02-07T14:08:59.176Z,83.52
2019-02-07T14:10:19.989Z,80.32
2019-02-07T14:11:27.715Z,80.80
2019-02-07T14:12:35.150Z,79.22
2019-02-07T14:13:58.948Z,79.12
2019-02-07T14:15:10.155Z,80.45
2019-02-07T14:16:33.608Z,81.57
2019-02-07T14:17:41.909Z,80.50
2019-02-07T14:18:47.428Z,82.45
2019-02-07T14:20:04.136Z,81.02
2019-02-07T14:21:14.356Z,82.25
2019-02-07T14:22:33.768Z,82.33
2019-02-07T14:23:51.668Z,79.40
2019-02-07T14:25:02.136Z,80.85
2019-02-07T14:26:13.136Z,83.12
2019-02-07T14:27:25.628Z,80.35
2019-02-07T14:28:39.849Z,76.05
2019-02-07T14:29:47.356Z,74.58
2019-02-07T14:31:01.536Z,75.62
2019-02-07T14:32:09.436Z,75.72
2019-02-07T14:33:26.944Z,76.47
2019-02-07T14:34:51.835Z,75.80
2019-02-07T14:36:08.430Z,75.97
2019-02-07T14:37:18.736Z,76.47
2019-02-07T14:38:29.990Z,75.25
2019-02-07T14:39:37.228Z,76.53
2019-02-07T14:40:50.335Z,77.47
2019-02-07T14:42:03.063Z,76.62
2019-02-07T14:43:12.046Z,78.57
2019-02-07T14:44:35.937Z,80.85
2019-02-07T14:45:46.195Z,81.60
2019-02-07T14:46:53.129Z,79.47
2019-02-07T14:47:58.818Z,80.80
2019-02-07T14:49:06.276Z,80.55
2019-02-07T14:50:14.818Z,79.80
2019-02-07T14:51:20.603Z,80.67
2019-02-07T14:52:27.472Z,80.03
2019-02-07T14:53:34.215Z,77.87
2019-02-07T14:54:45.475Z,78.40
2019-02-07T14:55:53.003Z,78.35
2019-02-07T14:56:59.155Z,76.67
2019-02-07T14:58:07.232Z,78.52
2019-02-07T14:59:13.508Z,76.65
2019-02-07T15:00:24.822Z,82.80
2019-02-07T15:01:33.269Z,79.87
2019-02-07T15:02:41.778Z,80.22
2019-02-07T15:03:50.484Z,81.80
2019-02-07T15:04:59.969Z,78.47
2019-02-07T15:06:11.864Z,77.20
2019-02-07T15:07:20.210Z,77.75
2019-02-07T15:08:29.155Z,77.10
2019-02-07T15:09:38.633Z,77.30
2019-02-07T15:10:47.723Z,74.12
2019-02-07T15:11:54.510Z,74.97
2019-02-07T15:13:06.222Z,73.12
2019-02-07T15:14:12.190Z,73.30
2019-02-07T15:15:26.870Z,71.87
2019-02-07T15:16:34.364Z,74.55
2019-02-07T15:17:39.874Z,74.53
2019-02-07T15:18:46.213Z,72.12
2019-02-07T15:19:52.026Z,73.87
2019-02-07T15:20:57.851Z,73.70
2019-02-07T15:22:03.607Z,75.22
2019-02-07T15:23:09.911Z,78.85
2019-02-07T15:24:16.643Z,79.20
2019-02-07T15:25:22.996Z,80.85
2019-02-07T15:26:29.010Z,80.32
2019-02-07T15:27:35.245Z,82.20
2019-02-07T15:28:42.050Z,82.02
2019-02-07T15:29:47.545Z,80.30
2019-02-07T15:30:54.042Z,78.87
2019-02-07T15:31:59.874Z,81.08
2019-02-07T15:33:06.158Z,75.97
2019-02-07T15:34:12.292Z,75.83
2019-02-07T15:35:22.781Z,78.07
2019-02-07T15:36:28.261Z,78.62
2019-02-07T15:37:35.206Z,79.72
2019-02-07T15:38:40.897Z,77.35
2019-02-07T15:39:46.995Z,79.60
2019-02-07T15:40:55.633Z,80.12